LIBNLGRX

Guest
Details From LIBN - LECCE
To LGRX - ARAXOS
Flight Number -
Tags generated
Created
Modified
Stats Distance 198 nm / 367 km
Max Altitude 23,500 ft / 7,163 m
Waypoints 4
Social Downloads 1
Likes 0
Share VATSIM

Download

Looking for another format? Having issues loading an existing format? Contact us
Advertisement - Login to hide

Notes

Basic altitude profile: - Ascent Rate: 2500ft/min - Ascent Speed: 250kts - Cruise Altitude: 120ft - Cruise Speed: 300kts - Descent Rate: 1500ft/min - Descent Speed: 250kts

Route

LIBN EKVIS UL612 ORTOS LGRX

ID Type Via Altitude Latitude Longitude Leg Dist Tot Dist Heading (true) Name
O LIBN APT - 0 ft / 0 m 40.23898˚ 18.13309˚ - 0 nm - LECCE
EKVIS FIX - 100 ft / 30 m 39.38333˚ 19.63361˚ 86 nm 86 nm 126° / 127° -
ORTOS FIX UL612 (AWY-HI) 23,500 ft / 7,163 m 38.96806˚ 20.22917˚ 37 nm 123 nm 132° / 132° -
O LGRX APT - 0 ft / 0 m 38.15109˚ 21.42640˚ 74 nm 198 nm 131° / 131° ARAXOS

Altitude Profile

Advertisement - Login to hide

Weather


0- 5 10 15 20 25 30 35+ Temperature / ° C

Clouds and Precipitation
Forecast for 2017-12-16 12:00 UTC. Updated 22 minutes ago

Ground ~20,000 ft ~40,000 ft Winds

LIBN

Details ICAO LIBN (LCC)
Name LECCE
Region Italy
Timezone Europe/Rome (UTC+1.0)
Stats Elevation 156 ft / 48 m (AMSL)
Location 40.238982° 18.133091°
Runways 1
Magnetic Variation 3.886° E

METAR

LIBN 160855Z 18004KT 9999 FEW030 15/14 Q1006 RMK OVC SCT080 BKN120 VIS MIN 9999 WIND THR14 19004KT WIND THR32 19004KT BLU

Decode

TAF

Not found

Departure Runways

ID Width Length Bearing (true) Bearing (mag) Surface Threshold Offset Overrun Length
14 197 ft / 60 m 6,786 ft / 2,068 m 145.87° 141.98° Asphalt 197 ft / 60 m 0 ft / 0 m
32 197 ft / 60 m 6,786 ft / 2,068 m 325.87° 321.98° Asphalt 448 ft / 137 m 0 ft / 0 m

LGRX

Details ICAO LGRX (GPA)
Name ARAXOS
Region Greece
Timezone Europe/Athens (UTC+2.0)
Stats Elevation 46 ft / 14 m (AMSL)
Location 38.151093° 21.426401°
Runways 2
Magnetic Variation 4.181° E

METAR

LGRX 160920Z 18012KT 9999 FEW025 BKN080 17/14 Q1012

Decode

TAF

Not found

Destination Runways

ID Width Length Bearing (true) Bearing (mag) Surface Threshold Offset Overrun Length
18L 70 ft / 21 m 11,021 ft / 3,359 m 183.19° 179.01° Asphalt 80 ft / 24 m 135 ft / 41 m
18R 148 ft / 45 m 11,019 ft / 3,359 m 182.93° 178.75° Asphalt 653 ft / 199 m 230 ft / 70 m
36L 148 ft / 45 m 11,019 ft / 3,359 m 2.93° 358.75° Asphalt 669 ft / 204 m 165 ft / 50 m
36R 70 ft / 21 m 11,021 ft / 3,359 m 3.19° 359.01° Asphalt 80 ft / 24 m 150 ft / 46 m